X  Lukk Metar værinformasjon om luftfart     ENZV Stavanger Airport, Sola
Temperatur
19°C Temperatur
9°C Duggpunkt
52% Luftfuktighet



Vind
3 M/S
6 MPT
10 KM/T
5 KNP



290°
VNV
Nåværende forhold

Klart Klart
Trykk 1015.92 (hPa) - 30 (inHg)
Sikt 6 (mil) - 9.7 (km)
Flyplass
Flyplass-kode ENZV

Plassering: Stavanger Airport, Sola
Avstand: 14 (km)

Metar:
ENZV 200820Z 29005KT CAVOK 19/09 Q1016 NOSIG

Tid: 20-05-2024 08:20 CEST